createdAt,value
2017-04-17T00:02:28.033Z,0
2017-04-17T00:03:16.265Z,0
2017-04-17T00:03:59.228Z,0
2017-04-17T00:06:32.186Z,0
2017-04-17T00:07:19.751Z,0
2017-04-17T00:08:00.118Z,0
2017-04-17T00:08:40.669Z,0
2017-04-17T00:09:22.083Z,0
2017-04-17T00:10:02.621Z,0
2017-04-17T00:10:43.985Z,0
2017-04-17T00:11:29.382Z,0
2017-04-17T00:12:10.449Z,0
2017-04-17T00:12:53.175Z,0
2017-04-17T00:13:35.921Z,0
2017-04-17T00:14:17.486Z,0
2017-04-17T00:14:58.812Z,0
2017-04-17T00:15:39.927Z,0
2017-04-17T00:16:21.369Z,0
2017-04-17T00:17:04.185Z,0
2017-04-17T00:17:45.525Z,0
2017-04-17T00:18:26.258Z,0
2017-04-17T00:19:08.429Z,0
2017-04-17T00:19:49.497Z,0
2017-04-17T00:20:30.527Z,0
2017-04-17T00:21:11.129Z,0
2017-04-17T00:21:55.914Z,0
2017-04-17T00:22:37.907Z,0
2017-04-17T00:23:18.958Z,0
2017-04-17T00:23:59.556Z,0
2017-04-17T00:24:41.604Z,0
2017-04-17T00:25:33.075Z,0
2017-04-17T00:29:30.999Z,0
2017-04-17T00:30:12.159Z,0
2017-04-17T00:30:52.637Z,0
2017-04-17T00:31:40.398Z,0
2017-04-17T00:32:21.036Z,0
2017-04-17T00:33:06.137Z,0
2017-04-17T00:35:51.972Z,0
2017-04-17T00:36:44.447Z,0
2017-04-17T00:37:33.085Z,0
2017-04-17T00:38:12.916Z,0
2017-04-17T00:38:53.382Z,0
2017-04-17T00:39:33.871Z,0
2017-04-17T00:40:14.396Z,0
2017-04-17T00:40:54.890Z,0
2017-04-17T00:41:35.427Z,0
2017-04-17T00:42:15.934Z,0
2017-04-17T00:42:56.445Z,0
2017-04-17T00:43:57.465Z,0
2017-04-17T00:45:17.827Z,0
2017-04-17T00:48:12.836Z,0
2017-04-17T00:48:53.847Z,0
2017-04-17T00:49:34.331Z,0
2017-04-17T00:50:14.850Z,0
2017-04-17T00:50:55.313Z,0
2017-04-17T00:51:35.835Z,0
2017-04-17T00:52:16.320Z,0
2017-04-17T00:52:56.849Z,0
2017-04-17T00:53:37.284Z,0
2017-04-17T00:54:17.847Z,0
2017-04-17T00:54:58.331Z,0
2017-04-17T00:55:38.824Z,0
2017-04-17T00:56:19.338Z,0
2017-04-17T00:56:59.842Z,0
2017-04-17T00:57:40.327Z,0
2017-04-17T00:58:20.857Z,0
2017-04-17T00:59:01.322Z,0
2017-04-17T00:59:41.873Z,0
2017-04-17T01:00:22.412Z,0
2017-04-17T01:01:02.852Z,0
2017-04-17T01:01:43.332Z,0
2017-04-17T01:02:23.879Z,0
2017-04-17T01:03:04.340Z,0
2017-04-17T01:03:44.890Z,0
2017-04-17T01:04:25.418Z,0
2017-04-17T01:05:05.956Z,0
2017-04-17T01:05:46.393Z,0
2017-04-17T01:06:26.901Z,0
2017-04-17T01:07:07.401Z,0
2017-04-17T01:07:47.882Z,0
2017-04-17T01:08:28.384Z,0
2017-04-17T01:09:08.889Z,0
2017-04-17T01:09:49.405Z,0
2017-04-17T01:10:29.867Z,0
2017-04-17T01:11:10.341Z,0
2017-04-17T01:11:50.950Z,0
2017-04-17T01:12:31.462Z,0
2017-04-17T01:13:11.883Z,0
2017-04-17T01:13:52.475Z,0
2017-04-17T01:14:32.888Z,0
2017-04-17T01:15:13.388Z,0
2017-04-17T01:15:53.878Z,0
2017-04-17T01:16:34.383Z,0
2017-04-17T01:17:14.863Z,0
2017-04-17T01:17:55.395Z,0
2017-04-17T01:18:35.872Z,0
2017-04-17T01:19:16.396Z,0
2017-04-17T01:19:56.843Z,0
2017-04-17T01:20:37.329Z,0
2017-04-17T01:21:17.803Z,0
2017-04-17T01:21:58.349Z,0
2017-04-17T01:22:38.806Z,0
2017-04-17T01:23:19.285Z,0
2017-04-17T01:23:59.833Z,0
2017-04-17T01:24:40.274Z,0
2017-04-17T01:25:20.782Z,0
2017-04-17T01:26:01.251Z,0
2017-04-17T01:26:41.761Z,0
2017-04-17T01:27:23.647Z,0
2017-04-17T01:28:06.339Z,0
2017-04-17T01:30:25.413Z,0
2017-04-17T01:31:19.007Z,0
2017-04-17T01:33:55.757Z,0
2017-04-17T01:34:35.710Z,0
2017-04-17T01:35:16.242Z,0
2017-04-17T01:35:56.686Z,0
2017-04-17T01:36:37.197Z,0
2017-04-17T01:37:19.165Z,0
2017-04-17T01:37:59.811Z,0
2017-04-17T01:38:40.280Z,0
2017-04-17T01:39:20.839Z,0
2017-04-17T01:40:01.306Z,0
2017-04-17T01:40:41.728Z,0
2017-04-17T01:41:22.217Z,0
2017-04-17T01:42:04.869Z,0
2017-04-17T01:42:45.373Z,0
2017-04-17T01:43:25.803Z,0
2017-04-17T01:44:06.339Z,0
2017-04-17T01:44:46.782Z,0
2017-04-17T01:45:27.273Z,0
2017-04-17T01:46:09.452Z,0
2017-04-17T01:46:48.561Z,0
2017-04-17T01:47:29.916Z,0
2017-04-17T01:48:10.370Z,0
2017-04-17T01:48:50.885Z,0
2017-04-17T01:49:31.350Z,0
2017-04-17T01:50:11.846Z,0
2017-04-17T01:50:52.346Z,0
2017-04-17T01:51:32.843Z,0
2017-04-17T01:52:16.006Z,0
2017-04-17T01:52:56.461Z,0
2017-04-17T01:53:36.944Z,0
2017-04-17T01:54:17.464Z,0
2017-04-17T01:54:58.082Z,0
2017-04-17T01:59:15.949Z,0
2017-04-17T01:59:55.983Z,0
2017-04-17T02:00:36.437Z,0
2017-04-17T02:01:16.917Z,0
2017-04-17T02:01:57.431Z,0
2017-04-17T02:02:37.930Z,0
2017-04-17T02:03:20.385Z,0
2017-04-17T02:04:00.870Z,0
2017-04-17T02:04:41.352Z,0
2017-04-17T02:05:21.816Z,0
2017-04-17T02:06:02.318Z,0
2017-04-17T02:06:42.809Z,0
2017-04-17T02:07:25.032Z,0
2017-04-17T02:08:05.569Z,0
2017-04-17T02:08:46.017Z,0
2017-04-17T02:09:26.479Z,0
2017-04-17T02:10:07.009Z,0
2017-04-17T02:10:47.477Z,0
2017-04-17T02:11:27.924Z,0
2017-04-17T02:12:09.465Z,0
2017-04-17T02:12:50.472Z,0
2017-04-17T02:13:31.107Z,0
2017-04-17T02:14:11.664Z,0
2017-04-17T02:14:52.218Z,0
2017-04-17T02:15:32.662Z,0
2017-04-17T02:16:13.198Z,0
2017-04-17T02:16:56.118Z,0
2017-04-17T02:17:36.591Z,0
2017-04-17T02:18:17.100Z,0
2017-04-17T02:18:57.563Z,0
2017-04-17T02:19:38.110Z,0
2017-04-17T02:20:20.532Z,0
2017-04-17T02:21:01.007Z,0
2017-04-17T02:21:41.464Z,0
2017-04-17T02:22:21.966Z,0
2017-04-17T02:23:02.461Z,0
2017-04-17T02:23:43.042Z,0
2017-04-17T02:24:26.344Z,0
2017-04-17T02:25:06.842Z,0
2017-04-17T02:25:47.381Z,0
2017-04-17T02:26:27.868Z,0
2017-04-17T02:27:08.425Z,0
2017-04-17T02:27:50.808Z,0
2017-04-17T02:28:31.383Z,0
2017-04-17T02:29:11.796Z,0
2017-04-17T02:29:52.305Z,0
2017-04-17T02:30:32.731Z,0
2017-04-17T02:31:13.192Z,0
2017-04-17T02:31:55.563Z,0
2017-04-17T02:32:36.059Z,0
2017-04-17T02:33:16.549Z,0
2017-04-17T02:33:57.063Z,0
2017-04-17T02:34:37.524Z,0
2017-04-17T02:35:18.082Z,0
2017-04-17T02:35:58.559Z,0
2017-04-17T02:36:39.064Z,0
2017-04-17T02:37:19.584Z,0
2017-04-17T02:38:00.072Z,0
2017-04-17T02:38:40.639Z,0
2017-04-17T02:39:21.160Z,0
2017-04-17T02:40:01.706Z,0
2017-04-17T02:40:42.118Z,0
2017-04-17T02:41:22.597Z,0
2017-04-17T02:42:03.079Z,0
2017-04-17T02:42:43.655Z,0
2017-04-17T02:43:24.079Z,0
2017-04-17T02:44:04.594Z,0
2017-04-17T02:44:45.055Z,0
2017-04-17T02:45:25.570Z,0
2017-04-17T02:46:06.040Z,0
2017-04-17T02:46:46.515Z,0
2017-04-17T02:47:27.008Z,0
2017-04-17T02:48:07.512Z,0
2017-04-17T02:48:48.029Z,0
2017-04-17T02:49:28.451Z,0
2017-04-17T02:50:08.987Z,0
2017-04-17T02:50:49.444Z,0
2017-04-17T02:51:29.943Z,0
2017-04-17T02:52:10.427Z,0
2017-04-17T02:52:50.909Z,0
2017-04-17T02:53:31.381Z,0
2017-04-17T02:54:11.845Z,0
2017-04-17T02:54:52.300Z,0
2017-04-17T02:55:32.851Z,0
2017-04-17T02:56:13.298Z,0
2017-04-17T02:56:53.754Z,0
2017-04-17T02:57:34.274Z,0
2017-04-17T02:58:14.784Z,0
2017-04-17T02:58:55.283Z,0
2017-04-17T02:59:35.743Z,0
2017-04-17T03:00:16.368Z,0
2017-04-17T03:00:56.841Z,0
2017-04-17T03:01:37.426Z,0
2017-04-17T03:02:17.894Z,0
2017-04-17T03:02:58.353Z,0
2017-04-17T03:03:38.883Z,0
2017-04-17T03:04:19.329Z,0
2017-04-17T03:04:59.838Z,0
2017-04-17T03:05:40.352Z,0
2017-04-17T03:06:20.836Z,0
2017-04-17T03:07:01.280Z,0
2017-04-17T03:07:41.764Z,0
2017-04-17T03:08:22.295Z,0
2017-04-17T03:09:02.796Z,0
2017-04-17T03:09:43.233Z,0
2017-04-17T03:10:23.767Z,0
2017-04-17T03:11:04.188Z,0
2017-04-17T03:11:44.711Z,0
2017-04-17T03:12:25.186Z,0
2017-04-17T03:13:05.737Z,0
2017-04-17T03:13:46.170Z,0
2017-04-17T03:14:26.682Z,0
2017-04-17T03:15:07.379Z,0
2017-04-17T03:15:47.876Z,0
2017-04-17T03:16:28.348Z,0
2017-04-17T03:17:08.811Z,0
2017-04-17T03:17:49.313Z,0
2017-04-17T03:18:29.775Z,0
2017-04-17T03:19:10.339Z,0
2017-04-17T03:19:50.768Z,0
2017-04-17T03:20:31.288Z,0
2017-04-17T03:21:11.779Z,0
2017-04-17T03:21:52.446Z,0
2017-04-17T03:22:32.951Z,0
2017-04-17T03:23:13.544Z,0
2017-04-17T03:23:54.003Z,0
2017-04-17T03:24:34.461Z,0
2017-04-17T03:25:14.959Z,0
2017-04-17T03:25:55.470Z,0
2017-04-17T03:26:35.921Z,0
2017-04-17T03:27:16.434Z,0
2017-04-17T03:27:56.874Z,0
2017-04-17T03:28:37.392Z,0
2017-04-17T03:29:17.876Z,0
2017-04-17T03:29:58.369Z,0
2017-04-17T03:30:38.875Z,0
2017-04-17T03:31:19.332Z,0
2017-04-17T03:31:59.849Z,0
2017-04-17T03:32:40.348Z,0
2017-04-17T03:33:20.823Z,0
2017-04-17T03:34:01.351Z,0
2017-04-17T03:34:41.820Z,0
2017-04-17T03:35:22.334Z,0
2017-04-17T03:36:02.832Z,0
2017-04-17T03:36:43.287Z,0
2017-04-17T03:37:23.786Z,0
2017-04-17T03:38:04.234Z,0
2017-04-17T03:38:44.765Z,0
2017-04-17T03:39:25.233Z,0
2017-04-17T03:40:05.743Z,0
2017-04-17T03:40:46.201Z,0
2017-04-17T03:41:26.702Z,0
2017-04-17T03:42:07.215Z,0
2017-04-17T03:42:47.669Z,0
2017-04-17T03:43:28.163Z,0
2017-04-17T03:44:08.675Z,0
2017-04-17T03:44:49.122Z,0
2017-04-17T03:45:29.644Z,0
2017-04-17T03:46:10.176Z,0
2017-04-17T03:46:50.664Z,0
2017-04-17T03:47:31.149Z,0
2017-04-17T03:48:11.629Z,0
2017-04-17T03:48:52.135Z,0
2017-04-17T03:49:32.565Z,0
2017-04-17T03:50:13.082Z,0
2017-04-17T03:50:53.571Z,0
2017-04-17T03:51:34.004Z,0
2017-04-17T03:52:14.634Z,0
2017-04-17T03:52:55.101Z,0
2017-04-17T03:53:35.625Z,0
2017-04-17T03:54:16.108Z,0
2017-04-17T03:54:56.636Z,0
2017-04-17T03:55:37.083Z,0
2017-04-17T03:56:17.613Z,0
2017-04-17T03:56:58.052Z,0
2017-04-17T03:57:38.516Z,0
2017-04-17T03:58:18.998Z,0
2017-04-17T03:58:59.522Z,0
2017-04-17T03:59:40.011Z,0
2017-04-17T04:00:20.528Z,0
2017-04-17T04:01:01.026Z,0
2017-04-17T04:01:41.488Z,0
2017-04-17T04:02:21.936Z,0
2017-04-17T04:03:02.505Z,0
2017-04-17T04:03:42.948Z,0
2017-04-17T04:04:23.439Z,4
2017-04-17T04:05:03.977Z,4
2017-04-17T04:05:44.430Z,4
2017-04-17T04:06:24.931Z,0
2017-04-17T04:07:05.357Z,4
2017-04-17T04:07:45.849Z,4
2017-04-17T04:08:26.350Z,4
2017-04-17T04:09:06.859Z,0
2017-04-17T04:09:47.340Z,4
2017-04-17T04:10:27.791Z,4
2017-04-17T04:11:08.325Z,8
2017-04-17T04:11:48.845Z,4
2017-04-17T04:12:29.284Z,4
2017-04-17T04:13:09.791Z,8
2017-04-17T04:13:50.346Z,4
2017-04-17T04:14:30.852Z,8
2017-04-17T04:15:11.328Z,8
2017-04-17T04:15:51.825Z,8
2017-04-17T04:16:32.249Z,8
2017-04-17T04:17:12.798Z,12
2017-04-17T04:17:53.241Z,12
2017-04-17T04:18:33.776Z,12
2017-04-17T04:19:14.256Z,20
2017-04-17T04:19:54.849Z,20
2017-04-17T04:20:35.316Z,24
2017-04-17T04:21:15.812Z,24
2017-04-17T04:21:56.254Z,28
2017-04-17T04:22:36.737Z,28
2017-04-17T04:23:17.231Z,28
2017-04-17T04:23:57.818Z,28
2017-04-17T04:24:38.296Z,32
2017-04-17T04:25:18.874Z,36
2017-04-17T04:25:59.319Z,36
2017-04-17T04:26:39.849Z,40
2017-04-17T04:27:20.303Z,40
2017-04-17T04:28:00.777Z,40
2017-04-17T04:28:41.232Z,44
2017-04-17T04:29:21.780Z,48
2017-04-17T04:30:02.214Z,48
2017-04-17T04:30:42.717Z,52
2017-04-17T04:31:23.307Z,56
2017-04-17T04:32:03.854Z,60
2017-04-17T04:32:44.327Z,68
2017-04-17T04:33:24.810Z,68
2017-04-17T04:34:05.317Z,80
2017-04-17T04:34:45.775Z,84
2017-04-17T04:35:26.284Z,92
2017-04-17T04:36:06.796Z,100
2017-04-17T04:36:47.260Z,108
2017-04-17T04:37:27.744Z,112
2017-04-17T04:38:08.232Z,124
2017-04-17T04:38:48.715Z,128
2017-04-17T04:39:29.195Z,132
2017-04-17T04:40:09.704Z,136
2017-04-17T04:40:50.219Z,140
2017-04-17T04:41:30.749Z,148
2017-04-17T04:42:11.194Z,152
2017-04-17T04:42:51.695Z,160
2017-04-17T04:43:32.225Z,168
2017-04-17T04:44:12.661Z,172
2017-04-17T04:44:53.193Z,176
2017-04-17T04:45:33.699Z,184
2017-04-17T04:46:14.224Z,192
2017-04-17T04:46:54.679Z,204
2017-04-17T04:47:35.159Z,212
2017-04-17T04:48:15.664Z,224
2017-04-17T04:48:56.163Z,232
2017-04-17T04:49:36.663Z,240
2017-04-17T04:50:17.135Z,244
2017-04-17T04:50:57.589Z,252
2017-04-17T04:51:38.076Z,264
2017-04-17T04:52:18.588Z,280
2017-04-17T04:52:59.080Z,300
2017-04-17T04:53:39.596Z,328
2017-04-17T04:54:20.040Z,356
2017-04-17T04:55:00.536Z,384
2017-04-17T04:55:41.061Z,408
2017-04-17T04:56:21.522Z,424
2017-04-17T04:57:01.979Z,432
2017-04-17T04:57:42.455Z,436
2017-04-17T04:58:22.990Z,440
2017-04-17T04:59:03.546Z,448
2017-04-17T04:59:43.989Z,448
2017-04-17T05:00:24.469Z,452
2017-04-17T05:01:05.036Z,448
2017-04-17T05:01:45.503Z,436
2017-04-17T05:02:25.969Z,428
2017-04-17T05:03:06.531Z,428
2017-04-17T05:03:47.042Z,424
2017-04-17T05:04:27.537Z,432
2017-04-17T05:05:08.071Z,424
2017-04-17T05:05:48.539Z,412
2017-04-17T05:06:29.111Z,400
2017-04-17T05:07:11.958Z,388
2017-04-17T05:07:52.614Z,376
2017-04-17T05:08:33.116Z,364
2017-04-17T05:09:13.601Z,348
2017-04-17T05:09:55.058Z,332
2017-04-17T05:10:36.657Z,316
2017-04-17T05:11:17.187Z,304
2017-04-17T05:11:57.691Z,292
2017-04-17T05:12:38.195Z,280
2017-04-17T05:13:18.680Z,268
2017-04-17T05:13:59.260Z,268
2017-04-17T05:14:42.281Z,256
2017-04-17T05:15:22.781Z,252
2017-04-17T05:16:03.289Z,256
2017-04-17T05:16:43.813Z,268
2017-04-17T05:17:26.057Z,292
2017-04-17T05:19:50.147Z,368
2017-04-17T05:20:39.404Z,360
2017-04-17T05:21:27.848Z,360
2017-04-17T05:22:16.408Z,356
2017-04-17T05:23:06.449Z,364
2017-04-17T05:23:54.930Z,372
2017-04-17T05:24:36.367Z,360
2017-04-17T05:25:16.764Z,352
2017-04-17T05:25:58.656Z,348
2017-04-17T05:26:39.115Z,348
2017-04-17T05:27:19.609Z,340
2017-04-17T05:28:01.413Z,332
2017-04-17T05:28:41.944Z,332
2017-04-17T05:29:22.423Z,328
2017-04-17T05:30:03.002Z,328
2017-04-17T05:30:43.447Z,336
2017-04-17T05:31:23.941Z,348
2017-04-17T05:32:04.459Z,356
2017-04-17T05:32:46.880Z,360
2017-04-17T05:33:27.314Z,360
2017-04-17T05:34:07.878Z,368
2017-04-17T05:34:50.208Z,368
2017-04-17T05:35:31.800Z,392
2017-04-17T05:36:12.293Z,440
2017-04-17T05:36:53.990Z,512
2017-04-17T05:37:34.517Z,632
2017-04-17T05:38:16.460Z,732
2017-04-17T05:38:56.973Z,864
2017-04-17T05:39:39.373Z,1012
2017-04-17T05:40:21.672Z,1112
2017-04-17T05:41:02.159Z,1140
2017-04-17T05:41:43.541Z,1172
2017-04-17T05:42:25.541Z,1180
2017-04-17T05:43:06.487Z,1164
2017-04-17T05:43:46.961Z,1152
2017-04-17T05:44:28.183Z,1164
2017-04-17T05:45:08.711Z,1212
2017-04-17T05:45:49.194Z,1304
2017-04-17T05:46:31.027Z,1412
2017-04-17T05:47:11.514Z,1504
2017-04-17T05:47:52.107Z,1592
2017-04-17T05:48:32.510Z,1660
2017-04-17T05:49:12.962Z,1728
2017-04-17T05:49:55.156Z,1800
2017-04-17T05:50:36.105Z,1872
2017-04-17T05:51:16.623Z,1900
2017-04-17T05:51:57.963Z,1900
2017-04-17T05:52:38.500Z,1908
2017-04-17T05:53:18.975Z,1892
2017-04-17T05:54:00.733Z,1852
2017-04-17T05:54:41.357Z,1808
2017-04-17T05:55:21.832Z,1760
2017-04-17T05:56:02.296Z,1696
2017-04-17T05:56:42.806Z,1636
2017-04-17T05:57:23.252Z,1588
2017-04-17T05:58:04.964Z,1508
2017-04-17T05:58:48.429Z,1400
2017-04-17T05:59:28.942Z,1276
2017-04-17T06:00:09.444Z,1100
2017-04-17T06:04:59.694Z,768
2017-04-17T06:05:48.523Z,868
2017-04-17T06:06:33.517Z,968
2017-04-17T06:07:20.509Z,1060
2017-04-17T06:08:10.706Z,1124
2017-04-17T06:08:55.462Z,1096
2017-04-17T06:09:37.346Z,1032
2017-04-17T06:10:17.899Z,984
2017-04-17T06:10:58.826Z,972
2017-04-17T06:11:39.975Z,980
2017-04-17T06:12:20.440Z,1028
2017-04-17T06:13:00.939Z,1108
2017-04-17T06:13:41.476Z,1196
2017-04-17T06:14:22.705Z,1296
2017-04-17T06:15:03.172Z,1408
2017-04-17T06:15:44.857Z,1540
2017-04-17T06:16:26.810Z,1680
2017-04-17T06:17:08.094Z,1792
2017-04-17T06:17:48.594Z,1936
2017-04-17T06:18:31.644Z,2092
2017-04-17T06:19:12.079Z,2104
2017-04-17T06:19:52.582Z,2068
2017-04-17T06:20:33.156Z,1956
2017-04-17T06:21:13.625Z,1824
2017-04-17T06:21:55.542Z,1752
2017-04-17T06:22:36.499Z,1736
2017-04-17T06:23:16.980Z,1732
2017-04-17T06:23:57.428Z,1720
2017-04-17T06:24:37.944Z,1632
2017-04-17T06:25:20.167Z,1500
2017-04-17T06:26:03.151Z,1460
2017-04-17T06:26:43.631Z,1524
2017-04-17T06:27:26.302Z,1624
2017-04-17T06:28:06.744Z,1768
2017-04-17T06:28:47.303Z,1768
2017-04-17T06:29:27.737Z,1756
2017-04-17T06:30:08.267Z,1680
2017-04-17T06:32:49.626Z,1696
2017-04-17T06:33:38.171Z,1744
2017-04-17T06:37:57.365Z,1932
2017-04-17T06:38:47.669Z,1908
2017-04-17T06:39:39.167Z,1956
2017-04-17T06:40:24.070Z,1928
2017-04-17T06:41:12.958Z,1864
2017-04-17T06:42:02.954Z,1776
2017-04-17T06:42:50.307Z,1788
2017-04-17T06:43:33.278Z,1816
2017-04-17T06:44:14.109Z,1920
2017-04-17T06:44:57.368Z,2160
2017-04-17T06:45:37.832Z,2412
2017-04-17T06:46:21.180Z,2596
2017-04-17T06:47:01.687Z,2700
2017-04-17T06:47:44.768Z,2688
2017-04-17T06:48:26.019Z,2672
2017-04-17T06:49:06.204Z,2636
2017-04-17T06:49:46.696Z,2612
2017-04-17T06:50:28.978Z,2580
2017-04-17T06:51:09.374Z,2572
2017-04-17T06:51:49.836Z,2608
2017-04-17T06:52:30.383Z,2712
2017-04-17T06:54:47.730Z,3200
2017-04-17T06:55:38.572Z,3264
2017-04-17T06:56:20.415Z,3340
2017-04-17T06:57:02.505Z,3384
2017-04-17T06:57:43.519Z,3456
2017-04-17T07:00:05.388Z,3652
2017-04-17T07:00:47.118Z,3772
2017-04-17T07:01:32.163Z,3984
2017-04-17T07:02:12.644Z,4180
2017-04-17T07:02:53.122Z,4416
2017-04-17T07:03:35.300Z,4640
2017-04-17T07:04:15.676Z,4836
2017-04-17T07:04:56.854Z,5092
2017-04-17T07:05:37.371Z,5028
2017-04-17T07:09:57.270Z,3576
2017-04-17T07:10:38.781Z,3516
2017-04-17T07:11:21.692Z,3476
2017-04-17T07:12:02.392Z,3476
2017-04-17T07:12:43.037Z,3464
2017-04-17T07:13:25.607Z,3524
2017-04-17T07:14:06.155Z,3532
2017-04-17T07:14:46.676Z,3616
2017-04-17T07:15:27.224Z,3720
2017-04-17T07:16:07.626Z,3852
2017-04-17T07:16:48.113Z,3972
2017-04-17T07:17:28.590Z,4044
2017-04-17T07:18:09.061Z,4044
2017-04-17T07:18:49.579Z,3956
2017-04-17T07:19:31.467Z,3792
2017-04-17T07:20:12.371Z,3688
2017-04-17T07:20:53.075Z,3636
2017-04-17T07:21:33.474Z,3668
2017-04-17T07:22:13.971Z,3592
2017-04-17T07:22:55.528Z,3452
2017-04-17T07:25:26.261Z,3576
2017-04-17T07:26:11.466Z,3672
2017-04-17T07:26:58.683Z,3804
2017-04-17T07:27:38.824Z,3964
2017-04-17T07:28:19.337Z,4092
2017-04-17T07:30:52.860Z,4580
2017-04-17T07:31:42.075Z,4744
2017-04-17T07:35:31.183Z,5364
2017-04-17T07:36:12.012Z,5388
2017-04-17T07:36:52.578Z,5252
2017-04-17T07:37:33.077Z,5028
2017-04-17T07:38:13.559Z,4948
2017-04-17T07:38:54.240Z,4992
2017-04-17T07:39:34.728Z,4844
2017-04-17T07:40:18.177Z,4496
2017-04-17T07:40:58.607Z,4504
2017-04-17T07:41:41.517Z,4492
2017-04-17T07:42:22.043Z,4172
2017-04-17T07:43:02.541Z,3916
2017-04-17T07:43:43.037Z,3700
2017-04-17T07:44:24.065Z,3372
2017-04-17T07:45:06.212Z,3112
2017-04-17T07:45:46.761Z,2988
2017-04-17T07:46:27.266Z,2932
2017-04-17T07:47:07.753Z,2836
2017-04-17T07:47:48.263Z,2800
2017-04-17T07:48:32.444Z,2840
2017-04-17T07:49:12.969Z,2892
2017-04-17T07:49:53.543Z,2968
2017-04-17T07:50:34.831Z,2976
2017-04-17T07:51:16.348Z,2948
2017-04-17T07:51:56.870Z,2904
2017-04-17T07:52:37.334Z,2900
2017-04-17T07:53:17.917Z,2936
2017-04-17T07:54:01.552Z,2988
2017-04-17T07:54:43.333Z,3044
2017-04-17T07:55:23.976Z,3112
2017-04-17T07:57:49.228Z,2968
2017-04-17T07:58:30.186Z,2836
2017-04-17T07:59:11.948Z,2712
2017-04-17T07:59:52.511Z,2616
2017-04-17T08:00:32.950Z,2568
2017-04-17T08:01:20.522Z,2524
2017-04-17T08:01:59.674Z,2504
2017-04-17T08:02:40.283Z,2476
2017-04-17T08:03:21.505Z,2428
2017-04-17T08:04:02.008Z,2380
2017-04-17T08:04:42.495Z,2324
2017-04-17T08:05:24.517Z,2280
2017-04-17T08:08:01.519Z,2120
2017-04-17T08:08:47.377Z,2108
2017-04-17T08:09:27.937Z,2108
2017-04-17T08:10:08.370Z,2092
2017-04-17T08:10:49.119Z,2072
2017-04-17T08:11:31.661Z,2032
2017-04-17T08:12:12.178Z,2044
2017-04-17T08:12:52.755Z,2060
2017-04-17T08:15:41.814Z,2208
2017-04-17T08:16:24.760Z,2276
2017-04-17T08:17:06.049Z,2308
2017-04-17T08:17:46.716Z,2316
2017-04-17T08:20:17.301Z,2432
2017-04-17T08:20:59.406Z,2412
2017-04-17T08:21:40.837Z,2404
2017-04-17T08:22:21.945Z,2424
2017-04-17T08:23:02.465Z,2524
2017-04-17T08:23:42.965Z,2636
2017-04-17T08:24:23.969Z,2740
2017-04-17T08:25:04.465Z,2796
2017-04-17T08:25:44.904Z,2820
2017-04-17T08:26:25.439Z,2776
2017-04-17T08:27:05.979Z,2768
2017-04-17T08:27:47.832Z,2712
2017-04-17T08:28:28.405Z,2692
2017-04-17T08:29:08.830Z,2688
2017-04-17T08:29:49.326Z,2672
2017-04-17T08:30:29.869Z,2644
2017-04-17T08:31:10.361Z,2624
2017-04-17T08:31:50.810Z,2576
2017-04-17T08:32:31.280Z,2580
2017-04-17T08:33:13.191Z,2540
2017-04-17T08:33:54.145Z,2508
2017-04-17T08:34:34.704Z,2424
2017-04-17T08:35:15.572Z,2324
2017-04-17T08:35:56.026Z,2296
2017-04-17T08:36:37.958Z,2328
2017-04-17T08:38:38.766Z,2656
2017-04-17T08:39:19.670Z,2780
2017-04-17T08:40:00.246Z,2888
2017-04-17T08:40:40.747Z,2980
2017-04-17T08:41:21.271Z,3100
2017-04-17T08:42:03.059Z,3228
2017-04-17T08:42:45.524Z,3340
2017-04-17T08:43:26.000Z,3336
2017-04-17T08:44:06.623Z,3580
2017-04-17T08:44:47.737Z,3696
2017-04-17T08:45:28.924Z,3716
2017-04-17T08:47:32.194Z,3904
2017-04-17T08:48:12.288Z,3952
2017-04-17T08:48:53.742Z,4008
2017-04-17T08:49:34.363Z,4080
2017-04-17T08:50:15.152Z,4212
2017-04-17T08:50:55.609Z,4360
2017-04-17T08:51:36.119Z,4496
2017-04-17T08:52:16.594Z,4632
2017-04-17T08:52:59.536Z,4776
2017-04-17T08:53:40.120Z,4888
2017-04-17T08:54:21.468Z,4864
2017-04-17T08:55:01.984Z,4956
2017-04-17T08:57:35.546Z,4524
2017-04-17T08:58:16.025Z,4368
2017-04-17T08:58:56.491Z,3980
2017-04-17T08:59:36.976Z,3676
2017-04-17T09:00:18.381Z,3440
2017-04-17T09:00:59.107Z,3304
2017-04-17T09:01:39.491Z,3148
2017-04-17T09:02:20.551Z,3040
2017-04-17T09:03:00.725Z,2944
2017-04-17T09:03:41.393Z,2872
2017-04-17T09:04:21.858Z,2880
2017-04-17T09:05:02.602Z,3216
2017-04-17T09:05:43.869Z,3564
2017-04-17T09:06:24.958Z,3492
2017-04-17T09:07:06.090Z,3188
2017-04-17T09:07:48.987Z,2688
2017-04-17T09:08:29.513Z,2208
2017-04-17T09:09:10.382Z,1956
2017-04-17T09:09:50.875Z,2008
2017-04-17T09:10:31.387Z,2100
2017-04-17T09:11:11.875Z,2348
2017-04-17T09:11:52.331Z,2644
2017-04-17T09:12:32.910Z,2740
2017-04-17T09:13:13.393Z,2844
2017-04-17T09:13:53.902Z,2620
2017-04-17T09:14:34.354Z,2868
2017-04-17T09:15:14.891Z,2888
2017-04-17T09:15:55.382Z,2960
2017-04-17T09:16:35.854Z,2884
2017-04-17T09:17:16.306Z,2724
2017-04-17T09:17:56.822Z,2700
2017-04-17T09:18:37.325Z,2884
2017-04-17T09:19:17.787Z,3148
2017-04-17T09:19:58.339Z,3316
2017-04-17T09:20:38.840Z,3556
2017-04-17T09:21:19.291Z,3568
2017-04-17T09:21:59.814Z,3792
2017-04-17T09:22:40.313Z,4040
2017-04-17T09:23:20.767Z,3732
2017-04-17T09:24:01.253Z,3680
2017-04-17T09:24:41.778Z,3908
2017-04-17T09:25:22.284Z,4160
2017-04-17T09:26:02.734Z,4096
2017-04-17T09:26:43.335Z,3772
2017-04-17T09:27:23.714Z,3492
2017-04-17T09:28:04.180Z,3304
2017-04-17T09:28:44.681Z,3076
2017-04-17T09:29:25.251Z,2924
2017-04-17T09:30:05.745Z,3004
2017-04-17T09:30:46.194Z,3124
2017-04-17T09:31:27.310Z,3212
2017-04-17T09:32:07.784Z,3328
2017-04-17T09:32:48.280Z,3416
2017-04-17T09:33:28.799Z,3508
2017-04-17T09:34:09.251Z,3536
2017-04-17T09:34:49.713Z,3668
2017-04-17T09:35:30.258Z,3808
2017-04-17T09:36:10.724Z,3604
2017-04-17T09:36:51.192Z,3168
2017-04-17T09:37:31.725Z,2840
2017-04-17T09:38:12.217Z,2912
2017-04-17T09:38:52.705Z,2808
2017-04-17T09:39:33.206Z,2520
2017-04-17T09:40:13.684Z,2272
2017-04-17T09:40:54.147Z,2152
2017-04-17T09:41:34.656Z,2144
2017-04-17T09:42:15.231Z,2060
2017-04-17T09:42:55.692Z,2012
2017-04-17T09:43:36.234Z,2016
2017-04-17T09:44:16.668Z,1972
2017-04-17T09:44:57.159Z,1996
2017-04-17T09:45:37.647Z,2176
2017-04-17T09:46:18.153Z,2384
2017-04-17T09:46:58.654Z,2540
2017-04-17T09:47:39.278Z,2672
2017-04-17T09:48:19.864Z,3040
2017-04-17T09:49:00.428Z,3308
2017-04-17T09:49:40.853Z,3504
2017-04-17T09:50:21.368Z,3412
2017-04-17T09:51:01.823Z,3408
2017-04-17T09:51:42.419Z,3620
2017-04-17T09:52:22.985Z,3856
2017-04-17T09:53:03.442Z,4012
2017-04-17T09:53:43.935Z,4248
2017-04-17T09:54:24.813Z,4252
2017-04-17T09:55:05.507Z,4184
2017-04-17T09:55:45.951Z,4008
2017-04-17T09:56:26.460Z,4132
2017-04-17T09:57:07.180Z,4564
2017-04-17T09:57:47.719Z,4924
2017-04-17T09:58:28.186Z,4880
2017-04-17T09:59:08.662Z,4712
2017-04-17T09:59:49.223Z,4536
2017-04-17T10:00:29.989Z,4536
2017-04-17T10:01:10.446Z,4596
2017-04-17T10:01:50.978Z,4500
2017-04-17T10:02:31.471Z,4236
2017-04-17T10:03:12.005Z,4008
2017-04-17T10:03:52.468Z,3856
2017-04-17T10:04:33.051Z,3840
2017-04-17T10:05:13.521Z,3860
2017-04-17T10:05:54.014Z,3964
2017-04-17T10:06:34.527Z,4048
2017-04-17T10:07:15.020Z,4260
2017-04-17T10:07:55.513Z,4236
2017-04-17T10:08:36.005Z,4068
2017-04-17T10:09:19.335Z,4020
2017-04-17T10:10:01.144Z,3996
2017-04-17T10:10:43.438Z,3972
2017-04-17T10:11:24.014Z,3940
2017-04-17T10:12:04.453Z,3964
2017-04-17T10:12:46.471Z,3924
2017-04-17T10:13:28.129Z,3792
2017-04-17T10:14:09.810Z,3668
2017-04-17T10:14:50.351Z,3704
2017-04-17T10:15:31.101Z,3780
2017-04-17T10:16:11.611Z,4076
2017-04-17T10:16:52.870Z,4404
2017-04-17T10:17:34.285Z,4240
2017-04-17T10:18:15.145Z,3808
2017-04-17T10:18:56.267Z,3868
2017-04-17T10:19:36.982Z,4004
2017-04-17T10:20:17.512Z,4140
2017-04-17T10:20:57.939Z,4116
2017-04-17T10:21:38.467Z,3816
2017-04-17T10:22:18.962Z,3504
2017-04-17T10:22:59.442Z,3172
2017-04-17T10:23:41.246Z,3016
2017-04-17T10:24:21.808Z,2840
2017-04-17T10:25:02.333Z,2832
2017-04-17T10:25:42.868Z,3016
2017-04-17T10:26:23.250Z,3288
2017-04-17T10:27:03.771Z,3544
2017-04-17T10:27:44.248Z,3792
2017-04-17T10:28:24.732Z,3836
2017-04-17T10:29:06.215Z,4188
2017-04-17T10:29:47.209Z,4484
2017-04-17T10:30:27.753Z,4396
2017-04-17T10:31:08.253Z,4296